Time;durP1;ratioP1;P1;durP2;ratioP2;P2;SDS_P1;SDS_P2;PMS_P1;PMS_P2;Temp;Humidity;BMP_temperature;BMP_pressure;BME280_temperature;BME280_humidity;BME280_pressure;Samples;Min_cycle;Max_cycle;Signal;HPM_P1;HPM_P2
2022/04/07 00:02:13;;;;;;;13.93;3.88;;;9.40;99.90;;;;;;5111306;28;20051;-64
2022/04/07 00:04:39;;;;;;;11.23;4.10;;;9.40;99.90;;;;;;5111817;28;20059;-63
2022/04/07 00:07:04;;;;;;;10.45;3.88;;;9.40;99.90;;;;;;5111761;28;20134;-63
2022/04/07 00:09:30;;;;;;;6.10;3.03;;;9.40;99.90;;;;;;5111246;28;20042;-64
2022/04/07 00:11:56;;;;;;;8.68;3.20;;;9.40;99.90;;;;;;5093549;28;20392;-64
2022/04/07 00:14:22;;;;;;;8.80;3.33;;;9.50;99.90;;;;;;5111018;28;20040;-63
2022/04/07 00:16:47;;;;;;;9.05;3.05;;;9.50;99.90;;;;;;5093529;28;20044;-63
2022/04/07 00:19:13;;;;;;;10.27;3.17;;;9.40;99.90;;;;;;5093200;28;20130;-62
2022/04/07 00:21:41;;;;;;;10.30;3.03;;;9.40;99.90;;;;;;5111542;28;20119;-64
2022/04/07 00:24:07;;;;;;;10.82;2.95;;;9.40;99.90;;;;;;5111492;28;20047;-62
2022/04/07 00:26:35;;;;;;;9.18;2.63;;;9.40;99.90;;;;;;5092886;28;20059;-63
2022/04/07 00:29:01;;;;;;;10.48;3.22;;;9.40;99.90;;;;;;5111558;28;20048;-63
2022/04/07 00:31:27;;;;;;;9.00;1.90;;;9.40;99.90;;;;;;5110996;28;20054;-63
2022/04/07 00:33:52;;;;;;;10.20;2.80;;;9.40;99.90;;;;;;5092322;28;20048;-63
2022/04/07 00:36:18;;;;;;;9.85;2.53;;;9.40;99.90;;;;;;5092565;28;20083;-62
2022/04/07 00:38:44;;;;;;;7.75;2.47;;;9.30;99.90;;;;;;5111392;28;20051;-63
2022/04/07 00:41:10;;;;;;;10.65;2.58;;;9.30;99.90;;;;;;5111271;28;20044;-70
2022/04/07 00:43:37;;;;;;;6.65;2.33;;;9.30;99.90;;;;;;5111387;28;20079;-62
2022/04/07 00:46:04;;;;;;;6.40;2.15;;;9.30;99.90;;;;;;5111400;28;20051;-62
2022/04/07 00:48:30;;;;;;;9.23;2.55;;;9.30;99.90;;;;;;5110890;28;20127;-65
2022/04/07 00:50:57;;;;;;;6.63;1.90;;;9.30;99.90;;;;;;5111069;28;20511;-64
2022/04/07 00:53:23;;;;;;;10.02;2.42;;;9.30;99.90;;;;;;5110719;28;20408;-63
2022/04/07 00:55:53;;;;;;;6.53;2.00;;;9.30;99.90;;;;;;5092763;28;20039;-62
2022/04/07 00:58:19;;;;;;;9.20;2.78;;;9.30;99.90;;;;;;5096124;28;20055;-63
2022/04/07 01:00:46;;;;;;;9.88;2.70;;;9.30;99.90;;;;;;5115150;28;20058;-63
2022/04/07 01:03:12;;;;;;;10.68;2.47;;;9.30;99.90;;;;;;5097103;28;20434;-62
2022/04/07 01:05:38;;;;;;;12.25;3.22;;;9.30;99.90;;;;;;5114711;28;20046;-64
2022/04/07 01:08:06;;;;;;;11.05;2.42;;;9.30;99.90;;;;;;5114964;28;20083;-63
2022/04/07 01:10:33;;;;;;;14.82;3.15;;;9.30;99.90;;;;;;5114482;28;20522;-62
2022/04/07 01:12:58;;;;;;;11.40;2.95;;;9.20;99.90;;;;;;5114533;28;20501;-63
2022/04/07 01:15:24;;;;;;;15.93;3.13;;;9.20;99.90;;;;;;5114420;28;20097;-62
2022/04/07 01:17:50;;;;;;;14.63;3.00;;;9.20;99.90;;;;;;5114505;28;20079;-63
2022/04/07 01:20:16;;;;;;;14.43;2.70;;;9.30;99.90;;;;;;5114576;28;20453;-71
2022/04/07 01:22:44;;;;;;;14.68;3.25;;;9.20;99.90;;;;;;5096249;28;20054;-64
2022/04/07 01:25:10;;;;;;;10.60;3.00;;;9.20;99.90;;;;;;5114260;28;20060;-64
2022/04/07 01:27:36;;;;;;;9.07;1.95;;;9.20;99.90;;;;;;5078907;28;20112;-63
2022/04/07 01:30:04;;;;;;;17.55;2.80;;;9.10;99.90;;;;;;5114500;28;20473;-63
2022/04/07 01:32:39;;;;;;;15.30;3.45;;;9.10;99.90;;;;;;5112537;28;20043;-62
2022/04/07 01:35:05;;;;;;;11.65;3.78;;;9.10;99.90;;;;;;5114048;28;20061;-63
2022/04/07 01:37:32;;;;;;;12.98;3.08;;;9.10;99.90;;;;;;5113706;28;20044;-64
2022/04/07 01:39:59;;;;;;;11.38;3.30;;;9.00;99.90;;;;;;5096158;28;20054;-63
2022/04/07 01:42:25;;;;;;;10.73;2.35;;;8.90;99.90;;;;;;5095405;28;20134;-63
2022/04/07 01:44:57;;;;;;;16.25;3.63;;;8.90;99.90;;;;;;5114116;28;20051;-64
2022/04/07 01:47:23;;;;;;;13.20;3.30;;;8.90;99.90;;;;;;5095740;28;20554;-63
2022/04/07 01:49:57;;;;;;;13.18;3.08;;;8.80;99.90;;;;;;5095975;28;20055;-64
2022/04/07 01:52:23;;;;;;;16.25;4.55;;;8.80;99.90;;;;;;5113807;28;20047;-64
2022/04/07 01:54:50;;;;;;;15.77;4.18;;;8.90;99.90;;;;;;5095896;28;20039;-64
2022/04/07 01:57:20;;;;;;;19.48;3.90;;;8.90;99.90;;;;;;5079045;28;20048;-65
2022/04/07 01:59:46;;;;;;;12.07;3.95;;;8.90;99.90;;;;;;5095516;28;20052;-64
2022/04/07 02:02:12;;;;;;;13.70;3.33;;;8.90;99.90;;;;;;5095684;28;20039;-64
2022/04/07 02:04:56;;;;;;;16.02;3.88;;;8.90;99.90;;;;;;5078417;28;20093;-65
2022/04/07 02:07:27;;;;;;;12.90;3.70;;;8.90;99.90;;;;;;5113557;28;20082;-72
2022/04/07 02:09:52;;;;;;;16.05;4.03;;;8.90;99.90;;;;;;5113356;28;20044;-65
2022/04/07 02:12:20;;;;;;;10.85;3.25;;;9.00;99.90;;;;;;5113813;28;20480;-64
2022/04/07 02:14:50;;;;;;;14.55;3.78;;;9.00;99.90;;;;;;5112923;28;20503;-64
2022/04/07 02:17:22;;;;;;;13.27;3.40;;;9.00;99.90;;;;;;5095611;28;20445;-68
2022/04/07 02:19:53;;;;;;;12.88;3.67;;;9.00;99.90;;;;;;5113672;28;20051;-64
2022/04/07 02:22:22;;;;;;;15.27;4.38;;;9.00;99.90;;;;;;5113681;28;20066;-64
2022/04/07 02:24:48;;;;;;;19.58;4.57;;;8.90;99.90;;;;;;5112867;28;20473;-65
2022/04/07 02:27:15;;;;;;;16.48;4.25;;;9.00;99.90;;;;;;5113493;28;20062;-64
2022/04/07 02:29:44;;;;;;;18.10;4.38;;;8.90;99.90;;;;;;5112585;28;20113;-64
2022/04/07 02:32:13;;;;;;;13.95;3.95;;;9.00;99.90;;;;;;5113382;28;20096;-64
2022/04/07 02:34:43;;;;;;;13.32;3.45;;;9.00;99.90;;;;;;5112868;28;20484;-63
2022/04/07 02:37:09;;;;;;;17.98;4.30;;;9.00;99.90;;;;;;5095139;28;20067;-64
2022/04/07 02:39:35;;;;;;;18.08;3.95;;;9.00;99.90;;;;;;5094661;28;20101;-64
2022/04/07 02:42:01;;;;;;;15.32;3.80;;;8.90;99.90;;;;;;5095186;28;20058;-64
2022/04/07 02:44:27;;;;;;;15.85;3.63;;;9.00;99.90;;;;;;5112842;28;20500;-72
2022/04/07 02:46:53;;;;;;;15.27;4.00;;;9.00;99.90;;;;;;5094820;28;20048;-66
2022/04/07 02:49:18;;;;;;;11.77;3.38;;;9.00;99.90;;;;;;5112883;28;20484;-64
2022/04/07 02:51:44;;;;;;;19.73;4.00;;;9.00;99.90;;;;;;5112701;28;20047;-64
2022/04/07 02:54:10;;;;;;;19.13;4.10;;;9.00;99.90;;;;;;5112664;28;20063;-66
2022/04/07 02:56:36;;;;;;;20.08;4.60;;;9.00;99.90;;;;;;5112512;28;20147;-63
2022/04/07 02:59:03;;;;;;;25.30;3.63;;;9.00;99.90;;;;;;5094422;28;20528;-63
2022/04/07 03:01:29;;;;;;;22.20;4.82;;;9.00;99.90;;;;;;5112768;28;20447;-72
2022/04/07 03:03:55;;;;;;;20.48;4.13;;;9.00;99.90;;;;;;5112358;28;20457;-63
2022/04/07 03:06:24;;;;;;;13.07;3.80;;;9.00;99.90;;;;;;5112661;28;20394;-62
2022/04/07 03:08:51;;;;;;;13.95;3.40;;;9.00;99.90;;;;;;5112401;28;20130;-66
2022/04/07 03:11:17;;;;;;;16.65;4.28;;;9.10;99.90;;;;;;5111900;28;20083;-65
2022/04/07 03:13:43;;;;;;;14.60;3.53;;;9.10;99.90;;;;;;5112208;28;20135;-63
2022/04/07 03:16:09;;;;;;;13.57;4.20;;;9.00;99.90;;;;;;5112561;28;20057;-65
2022/04/07 03:18:35;;;;;;;13.35;3.80;;;9.00;99.90;;;;;;5111916;28;20048;-64
2022/04/07 03:21:01;;;;;;;16.75;4.07;;;9.00;99.90;;;;;;5111279;28;20054;-63
2022/04/07 03:23:27;;;;;;;10.32;3.58;;;9.00;99.90;;;;;;5112115;28;20393;-64
2022/04/07 03:25:53;;;;;;;12.60;3.65;;;9.00;99.90;;;;;;5093393;28;20063;-64
2022/04/07 03:28:19;;;;;;;15.75;4.03;;;9.00;99.90;;;;;;5112076;28;20052;-63
2022/04/07 03:30:45;;;;;;;13.05;3.80;;;9.10;99.90;;;;;;5111530;28;20083;-63
2022/04/07 03:33:10;;;;;;;17.45;4.65;;;9.10;99.90;;;;;;5112209;28;20048;-63
2022/04/07 03:35:36;;;;;;;18.17;4.25;;;9.00;99.90;;;;;;5093402;28;20044;-63
2022/04/07 03:38:03;;;;;;;8.45;3.22;;;9.00;99.90;;;;;;5112182;28;20050;-63
2022/04/07 03:40:29;;;;;;;17.70;4.53;;;9.10;99.90;;;;;;5112246;28;20047;-67
2022/04/07 03:42:55;;;;;;;14.68;4.35;;;9.10;99.90;;;;;;5111435;28;20058;-64
2022/04/07 03:45:20;;;;;;;16.48;3.22;;;9.10;99.90;;;;;;5112118;28;20448;-63
2022/04/07 03:47:47;;;;;;;17.58;4.22;;;9.10;99.90;;;;;;5076478;28;20043;-63
2022/04/07 03:50:12;;;;;;;10.35;3.70;;;9.10;99.90;;;;;;5093721;28;20043;-62
2022/04/07 03:52:38;;;;;;;13.70;4.68;;;9.10;99.90;;;;;;5111392;28;20104;-66
2022/04/07 03:55:05;;;;;;;13.98;3.88;;;9.10;99.90;;;;;;5111903;28;20047;-65
2022/04/07 03:57:31;;;;;;;13.15;3.97;;;9.10;99.90;;;;;;5093799;28;20051;-63
2022/04/07 03:59:57;;;;;;;17.05;4.15;;;9.10;99.90;;;;;;5111423;28;20228;-63
2022/04/07 04:02:23;;;;;;;14.60;3.58;;;9.10;99.90;;;;;;5093771;28;20054;-63
2022/04/07 04:04:48;;;;;;;12.18;3.00;;;9.10;99.90;;;;;;5111298;28;20130;-62
2022/04/07 04:07:14;;;;;;;10.25;2.85;;;9.10;99.90;;;;;;5111920;28;20600;-62
2022/04/07 04:09:40;;;;;;;18.23;4.18;;;9.10;99.90;;;;;;5111419;28;20061;-65
2022/04/07 04:12:06;;;;;;;12.70;3.40;;;9.10;99.90;;;;;;5111464;28;20052;-62
2022/04/07 04:14:32;;;;;;;15.25;3.53;;;9.10;99.90;;;;;;5093279;28;20055;-63
2022/04/07 04:16:58;;;;;;;18.35;3.45;;;9.10;99.90;;;;;;5111069;28;20035;-63
2022/04/07 04:19:25;;;;;;;19.33;4.15;;;9.10;99.90;;;;;;5111665;28;20058;-64
2022/04/07 04:21:51;;;;;;;11.02;3.50;;;9.00;99.90;;;;;;5111181;28;20040;-63
2022/04/07 04:24:17;;;;;;;16.25;3.95;;;9.00;99.90;;;;;;5111490;28;20062;-63
2022/04/07 04:26:42;;;;;;;22.00;4.32;;;9.00;99.90;;;;;;5092824;28;20055;-65
2022/04/07 04:29:08;;;;;;;26.08;4.90;;;9.00;99.90;;;;;;5111539;28;20051;-63
2022/04/07 04:31:34;;;;;;;17.02;4.13;;;9.00;99.90;;;;;;5093856;28;20134;-63
2022/04/07 04:34:00;;;;;;;16.50;4.38;;;9.00;99.90;;;;;;5096945;28;20156;-63
2022/04/07 04:36:25;;;;;;;17.92;4.43;;;8.90;99.90;;;;;;5097321;28;20400;-65
2022/04/07 04:38:51;;;;;;;18.08;3.90;;;8.90;99.90;;;;;;5097035;28;20043;-65
2022/04/07 04:41:17;;;;;;;23.10;4.55;;;8.90;99.90;;;;;;5115501;28;20100;-63
2022/04/07 04:43:42;;;;;;;17.50;3.88;;;8.90;99.90;;;;;;5115153;28;20046;-72
2022/04/07 04:46:08;;;;;;;20.17;4.80;;;8.90;99.90;;;;;;5115354;28;20089;-63
2022/04/07 04:48:34;;;;;;;19.38;4.18;;;8.90;99.90;;;;;;5115424;28;20130;-62
2022/04/07 04:51:02;;;;;;;15.48;4.05;;;8.90;99.90;;;;;;5114870;28;20078;-64
2022/04/07 04:53:29;;;;;;;25.40;4.00;;;8.90;99.90;;;;;;5096786;28;20050;-64
2022/04/07 04:55:54;;;;;;;18.17;3.97;;;8.90;99.90;;;;;;5114459;28;20050;-62
2022/04/07 04:58:20;;;;;;;20.35;4.15;;;8.90;99.90;;;;;;5115265;28;20048;-62
2022/04/07 05:00:46;;;;;;;22.92;3.88;;;8.90;99.90;;;;;;5114686;28;20075;-66
2022/04/07 05:03:12;;;;;;;16.90;4.75;;;8.90;99.90;;;;;;5114943;28;20122;-65
2022/04/07 05:05:37;;;;;;;13.80;2.88;;;8.90;99.90;;;;;;5079769;28;20096;-65
2022/04/07 05:08:03;;;;;;;19.30;4.22;;;8.90;99.90;;;;;;5114472;28;20267;-65
2022/04/07 05:10:29;;;;;;;25.13;4.95;;;8.80;99.90;;;;;;5096847;28;20051;-63
2022/04/07 05:12:55;;;;;;;15.75;3.95;;;8.80;99.90;;;;;;5114411;28;20089;-64
2022/04/07 05:15:20;;;;;;;19.45;4.50;;;8.80;99.90;;;;;;5096536;28;20039;-67
2022/04/07 05:17:50;;;;;;;16.85;4.70;;;8.70;99.90;;;;;;5114252;28;20512;-73
2022/04/07 05:20:16;;;;;;;19.40;4.32;;;8.70;99.90;;;;;;5096373;28;20055;-64
2022/04/07 05:22:43;;;;;;;20.40;5.20;;;8.70;99.90;;;;;;5114838;28;20067;-69
2022/04/07 05:25:10;;;;;;;10.50;2.63;;;8.70;99.90;;;;;;5114124;28;20288;-63
2022/04/07 05:27:37;;;;;;;10.70;2.70;;;8.60;99.90;;;;;;5096058;28;20051;-63
2022/04/07 05:30:04;;;;;;;11.90;2.38;;;8.50;99.90;;;;;;5114023;28;20076;-64
2022/04/07 05:32:30;;;;;;;4.93;1.80;;;8.40;99.90;;;;;;5114409;28;20048;-64
2022/04/07 05:34:56;;;;;;;10.18;2.20;;;8.10;99.90;;;;;;5113746;28;20036;-65
2022/04/07 05:37:22;;;;;;;11.77;2.45;;;7.90;99.90;;;;;;5114206;28;20470;-65
2022/04/07 05:39:48;;;;;;;3.53;1.13;;;7.80;99.90;;;;;;5079426;28;20048;-72
2022/04/07 05:42:14;;;;;;;7.85;1.80;;;7.60;99.90;;;;;;5114293;28;20043;-63
2022/04/07 05:44:39;;;;;;;7.28;2.25;;;7.50;99.90;;;;;;5094933;28;20062;-63
2022/04/07 05:47:05;;;;;;;6.35;2.20;;;7.30;99.90;;;;;;5095509;28;20052;-64
2022/04/07 05:49:31;;;;;;;8.65;2.53;;;7.30;99.90;;;;;;5114042;28;20050;-65
2022/04/07 05:52:00;;;;;;;8.98;2.50;;;7.20;99.90;;;;;;5113344;28;20044;-64
2022/04/07 05:54:27;;;;;;;11.70;2.60;;;7.10;99.90;;;;;;5113928;28;20351;-64
2022/04/07 05:56:53;;;;;;;7.38;2.30;;;7.10;99.90;;;;;;5095393;28;20177;-71
2022/04/07 05:59:19;;;;;;;9.18;2.47;;;7.10;99.90;;;;;;5095241;28;20539;-64
2022/04/07 06:01:44;;;;;;;8.35;2.28;;;7.10;99.90;;;;;;5095563;28;20059;-65
2022/04/07 06:04:10;;;;;;;5.18;2.08;;;7.00;99.90;;;;;;5078497;28;20100;-64
2022/04/07 06:06:36;;;;;;;5.00;2.10;;;7.00;99.90;;;;;;5113813;28;20055;-65
2022/04/07 06:09:03;;;;;;;5.45;2.05;;;6.90;99.90;;;;;;5094887;28;20043;-64
2022/04/07 06:11:29;;;;;;;9.60;2.45;;;6.90;99.90;;;;;;5113566;28;20131;-64
2022/04/07 06:13:55;;;;;;;6.78;2.08;;;6.60;99.90;;;;;;5094953;28;20134;-70
2022/04/07 06:16:20;;;;;;;7.53;2.05;;;6.80;99.90;;;;;;5095220;28;20044;-63
2022/04/07 06:18:46;;;;;;;7.45;2.63;;;6.80;99.90;;;;;;5078494;28;20104;-63
2022/04/07 06:21:12;;;;;;;5.97;1.63;;;6.80;99.90;;;;;;5094528;28;20044;-64
2022/04/07 06:23:39;;;;;;;6.20;1.55;;;6.70;99.90;;;;;;5095439;28;20089;-63
2022/04/07 06:26:05;;;;;;;7.70;1.90;;;6.70;99.90;;;;;;5094663;28;20059;-63
2022/04/07 06:28:30;;;;;;;3.95;1.40;;;6.50;99.90;;;;;;5078161;28;20078;-64
2022/04/07 06:30:56;;;;;;;7.05;1.80;;;6.40;99.90;;;;;;5094511;28;20052;-72
2022/04/07 06:33:22;;;;;;;4.63;1.33;;;6.40;99.90;;;;;;5095381;28;20090;-64
2022/04/07 06:35:52;;;;;;;4.38;1.27;;;6.40;99.90;;;;;;5113114;28;20055;-64
2022/04/07 06:38:18;;;;;;;5.25;1.65;;;6.30;99.90;;;;;;5112885;28;20122;-64
2022/04/07 06:40:44;;;;;;;4.32;1.30;;;6.30;99.90;;;;;;5061682;28;20055;-66
2022/04/07 06:43:11;;;;;;;5.07;1.40;;;6.30;99.90;;;;;;5094668;28;20047;-63
2022/04/07 06:45:37;;;;;;;5.28;1.48;;;6.30;99.90;;;;;;5113005;28;20388;-64
2022/04/07 06:48:03;;;;;;;4.63;1.40;;;6.30;99.90;;;;;;5112651;28;20048;-63
2022/04/07 06:50:29;;;;;;;1.88;0.88;;;6.30;99.90;;;;;;5112905;28;20055;-63
2022/04/07 06:52:56;;;;;;;3.95;1.77;;;6.30;99.90;;;;;;5112220;28;20547;-63
2022/04/07 06:55:22;;;;;;;3.85;1.42;;;6.30;99.90;;;;;;5094280;28;20044;-63
2022/04/07 06:57:52;;;;;;;3.58;1.10;;;6.30;99.90;;;;;;5094777;28;20126;-63
2022/04/07 07:00:19;;;;;;;1.63;1.45;;;6.40;99.90;;;;;;5111839;28;20127;-63
2022/04/07 07:02:47;;;;;;;4.15;1.58;;;6.40;99.90;;;;;;5094424;28;20130;-62
2022/04/07 07:05:13;;;;;;;5.20;1.23;;;6.40;99.90;;;;;;5094226;28;20370;-62
2022/04/07 07:07:38;;;;;;;1.58;1.00;;;6.30;99.90;;;;;;5112617;28;20043;-63
2022/04/07 07:10:04;;;;;;;1.33;0.98;;;6.40;99.90;;;;;;5094002;28;20236;-63
2022/04/07 07:12:30;;;;;;;10.40;1.48;;;6.40;99.90;;;;;;5076909;28;20047;-62
2022/04/07 07:14:56;;;;;;;6.05;1.70;;;6.40;99.90;;;;;;5112435;28;20043;-62
2022/04/07 07:17:21;;;;;;;2.75;1.23;;;6.40;99.90;;;;;;5111985;28;20327;-64
2022/04/07 07:19:47;;;;;;;11.10;1.73;;;6.60;99.90;;;;;;5112301;28;20035;-63
2022/04/07 07:22:13;;;;;;;4.10;1.23;;;6.50;99.90;;;;;;5093739;28;20079;-62
2022/04/07 07:24:39;;;;;;;5.45;1.20;;;6.50;99.90;;;;;;5111946;28;20054;-63
2022/04/07 07:27:04;;;;;;;4.80;1.25;;;6.50;99.90;;;;;;5093737;28;20485;-64
2022/04/07 07:29:30;;;;;;;5.32;1.42;;;6.50;99.90;;;;;;5112146;28;20043;-63
2022/04/07 07:31:56;;;;;;;5.03;1.20;;;6.60;99.90;;;;;;5094084;28;20050;-64
2022/04/07 07:34:22;;;;;;;5.82;1.30;;;6.60;99.90;;;;;;5093603;28;20306;-63
2022/04/07 07:36:47;;;;;;;1.83;1.17;;;6.50;99.90;;;;;;5093848;28;20039;-62
2022/04/07 07:39:13;;;;;;;5.03;1.23;;;6.60;99.90;;;;;;5093496;28;20051;-62
2022/04/07 07:41:40;;;;;;;4.40;1.23;;;6.60;99.90;;;;;;5111831;28;20504;-65
2022/04/07 07:44:06;;;;;;;4.18;1.17;;;6.60;99.90;;;;;;5111535;28;20096;-72
2022/04/07 07:46:33;;;;;;;4.72;1.30;;;6.60;99.90;;;;;;5093799;28;20051;-63
2022/04/07 07:49:00;;;;;;;3.25;1.55;;;6.60;99.90;;;;;;5111978;28;20402;-63
2022/04/07 07:51:25;;;;;;;2.80;1.27;;;6.70;99.90;;;;;;5111206;28;20095;-64
2022/04/07 07:53:51;;;;;;;4.38;1.13;;;6.70;99.90;;;;;;5111594;28;20542;-63
2022/04/07 07:56:17;;;;;;;3.53;1.48;;;6.80;99.90;;;;;;5093092;28;20042;-64
2022/04/07 07:58:42;;;;;;;4.13;1.25;;;6.90;99.90;;;;;;5093528;28;20079;-63
2022/04/07 08:01:08;;;;;;;4.32;1.20;;;6.90;99.90;;;;;;5093297;28;20047;-70
2022/04/07 08:03:34;;;;;;;4.60;1.38;;;6.90;99.90;;;;;;5093492;28;20050;-61
2022/04/07 08:06:00;;;;;;;3.83;1.38;;;7.20;99.90;;;;;;5111314;28;20107;-63
2022/04/07 08:08:25;;;;;;;3.67;1.13;;;7.80;99.90;;;;;;5111124;28;20486;-62
2022/04/07 08:10:51;;;;;;;5.95;1.85;;;8.70;99.90;;;;;;5111778;28;20392;-63
2022/04/07 08:13:16;;;;;;;;;;;9.00;99.90;;;;;;5093360;28;19927;-63
2022/04/07 08:15:42;;;;;;;;;;;9.10;99.90;;;;;;5111566;28;19924;-62
2022/04/07 08:18:08;;;;;;;;;;;9.40;99.90;;;;;;5112012;28;19928;-72
2022/04/07 08:20:34;;;;;;;;;;;10.20;99.90;;;;;;5111760;28;19967;-63
2022/04/07 08:22:59;;;;;;;;;;;11.30;99.90;;;;;;5111724;28;19967;-63
2022/04/07 08:25:25;;;;;;;;;;;12.40;99.90;;;;;;5110910;28;19949;-63
2022/04/07 08:27:51;;;;;;;4.30;1.48;;;13.40;99.90;;;;;;5093531;28;20079;-63
2022/04/07 08:30:16;;;;;;;4.55;1.58;;;14.10;99.90;;;;;;5092749;28;20047;-63
2022/04/07 08:32:42;;;;;;;5.82;1.55;;;14.80;99.90;;;;;;5111595;28;20039;-62
2022/04/07 08:35:11;;;;;;;3.35;1.25;;;15.10;99.90;;;;;;5093285;28;20050;-64
2022/04/07 08:37:37;;;;;;;10.45;1.55;;;15.60;99.90;;;;;;5110986;28;20517;-65
2022/04/07 08:40:06;;;;;;;5.90;1.67;;;15.70;99.90;;;;;;5092973;28;20083;-64
2022/04/07 08:42:34;;;;;;;5.43;2.10;;;16.00;99.90;;;;;;5075928;28;20134;-63
2022/04/07 08:45:01;;;;;;;3.35;1.42;;;15.80;99.90;;;;;;5111149;28;20407;-66
2022/04/07 08:47:28;;;;;;;5.30;1.67;;;15.80;99.90;;;;;;5092823;28;20052;-65
2022/04/07 08:49:55;;;;;;;5.97;1.52;;;15.80;99.90;;;;;;5076085;28;20493;-65
2022/04/07 08:52:20;;;;;;;5.18;1.42;;;15.90;99.90;;;;;;5075973;28;20043;-63
2022/04/07 08:54:47;;;;;;;5.40;1.63;;;15.90;99.90;;;;;;5059195;28;20035;-63
2022/04/07 08:57:14;;;;;;;5.03;1.63;;;15.90;99.90;;;;;;5110947;28;20047;-70
2022/04/07 08:59:40;;;;;;;6.45;1.90;;;16.00;99.90;;;;;;5093181;28;20047;-64
2022/04/07 09:02:08;;;;;;;6.45;1.73;;;15.90;99.90;;;;;;5092984;28;20048;-63
2022/04/07 09:04:39;;;;;;;5.80;1.83;;;16.10;99.90;;;;;;5092495;28;20063;-63
2022/04/07 09:07:06;;;;;;;7.30;1.77;;;16.10;99.90;;;;;;5111022;28;20051;-64
2022/04/07 09:09:33;;;;;;;7.90;1.92;;;15.60;99.90;;;;;;5110312;28;20055;-62
2022/04/07 09:12:02;;;;;;;7.53;1.88;;;15.50;99.90;;;;;;5110338;28;20039;-62
2022/04/07 09:14:32;;;;;;;6.82;1.60;;;14.90;99.90;;;;;;5109854;28;20058;-65
2022/04/07 09:16:58;;;;;;;7.43;1.58;;;14.60;99.90;;;;;;5090608;28;20039;-64
2022/04/07 09:19:24;;;;;;;6.68;1.63;;;14.80;99.90;;;;;;5092102;28;20097;-63
2022/04/07 09:22:08;;;;;;;5.85;1.70;;;14.50;99.90;;;;;;5095106;28;20126;-64
2022/04/07 09:24:38;;;;;;;8.53;2.10;;;14.40;99.90;;;;;;5112852;28;20051;-62
2022/04/07 09:27:06;;;;;;;4.78;1.50;;;14.40;99.90;;;;;;5113404;28;20289;-63
2022/04/07 09:29:43;;;;;;;6.93;1.70;;;14.50;99.90;;;;;;5112758;28;20050;-63
2022/04/07 09:32:23;;;;;;;5.22;1.75;;;14.40;99.90;;;;;;5113423;28;20177;-62
2022/04/07 09:34:53;;;;;;;8.63;2.42;;;14.20;99.90;;;;;;5113544;28;20173;-62
2022/04/07 09:37:21;;;;;;;10.25;2.20;;;13.90;99.90;;;;;;5112590;28;20043;-69
2022/04/07 09:39:49;;;;;;;6.90;1.92;;;13.80;99.90;;;;;;5113145;28;20051;-62
2022/04/07 09:42:25;;;;;;;7.90;2.00;;;13.60;99.90;;;;;;5095122;28;20043;-64
2022/04/07 09:44:54;;;;;;;8.15;1.90;;;13.60;99.90;;;;;;5113323;28;20043;-63
2022/04/07 09:47:20;;;;;;;7.53;1.88;;;13.30;99.90;;;;;;5095313;28;20047;-69
2022/04/07 09:49:49;;;;;;;8.55;2.00;;;13.20;99.90;;;;;;5113017;28;20042;-64
2022/04/07 09:52:21;;;;;;;9.43;2.13;;;12.90;99.90;;;;;;5112985;28;20130;-63
2022/04/07 09:54:51;;;;;;;9.68;2.30;;;12.90;99.90;;;;;;5095320;28;20050;-64
2022/04/07 09:57:20;;;;;;;6.25;1.98;;;12.80;99.90;;;;;;5113345;28;20043;-62
2022/04/07 09:59:46;;;;;;;8.18;2.35;;;12.50;99.90;;;;;;5094937;28;20051;-63
2022/04/07 10:02:12;;;;;;;10.65;2.28;;;12.30;99.90;;;;;;5113078;28;20040;-63
2022/04/07 10:04:39;;;;;;;11.95;2.50;;;12.00;99.90;;;;;;5112650;28;20096;-63
2022/04/07 10:07:09;;;;;;;10.55;2.90;;;11.80;99.90;;;;;;5078269;28;20051;-62
2022/04/07 10:09:36;;;;;;;8.63;1.95;;;11.50;99.90;;;;;;5094176;28;20095;-68
2022/04/07 10:12:02;;;;;;;10.98;2.42;;;11.20;99.90;;;;;;5113160;28;20338;-62
2022/04/07 10:14:30;;;;;;;11.27;2.70;;;10.70;99.90;;;;;;5094501;28;20052;-62
2022/04/07 10:16:55;;;;;;;13.90;2.60;;;10.50;99.90;;;;;;5094594;28;20048;-65
2022/04/07 10:19:31;;;;;;;9.70;2.42;;;10.60;99.90;;;;;;5112229;28;20050;-63
2022/04/07 10:22:20;;;;;;;13.40;3.00;;;10.70;99.90;;;;;;5093667;28;20516;-64
2022/04/07 10:24:54;;;;;;;14.10;3.05;;;10.90;99.90;;;;;;5111938;28;20042;-65
2022/04/07 10:27:22;;;;;;;6.82;1.67;;;11.00;99.90;;;;;;5112458;28;20094;-63
2022/04/07 10:30:04;;;;;;;4.95;1.60;;;10.90;99.90;;;;;;5093549;28;20120;-63
2022/04/07 10:32:47;;;;;;;5.70;1.55;;;10.50;99.90;;;;;;5112215;28;20066;-64
2022/04/07 10:35:33;;;;;;;6.57;1.40;;;10.10;99.90;;;;;;5093809;28;20477;-63
2022/04/07 10:38:41;;;;;;;7.60;2.30;;;9.70;99.90;;;;;;5094142;28;20181;-63
2022/04/07 10:41:08;;;;;;;7.95;2.30;;;9.50;99.90;;;;;;5094079;28;20059;-64
2022/04/07 10:43:38;;;;;;;8.48;2.38;;;9.60;99.90;;;;;;5093397;28;20043;-64
2022/04/07 10:46:06;;;;;;;7.28;2.40;;;9.70;99.90;;;;;;5112249;28;20051;-64
2022/04/07 10:48:59;;;;;;;11.40;2.83;;;10.00;99.90;;;;;;5111185;28;20047;-67
2022/04/07 10:51:45;;;;;;;10.75;2.85;;;10.30;99.90;;;;;;5111950;28;20165;-65
2022/04/07 10:54:12;;;;;;;12.60;2.38;;;10.40;99.90;;;;;;5111688;28;20497;-68
2022/04/07 10:56:39;;;;;;;14.43;3.28;;;10.50;99.90;;;;;;5093766;28;20093;-63
2022/04/07 10:59:18;;;;;;;14.07;3.15;;;10.40;99.90;;;;;;5111627;28;20052;-64
2022/04/07 11:01:47;;;;;;;9.95;2.70;;;10.30;99.90;;;;;;5111448;28;20104;-63
2022/04/07 11:04:19;;;;;;;10.57;2.30;;;10.30;99.90;;;;;;5093976;28;20066;-64
2022/04/07 11:09:57;;;;;;;11.27;2.42;;;10.50;99.90;;;;;;5092812;28;20051;-64
2022/04/07 11:12:37;;;;;;;12.98;3.22;;;10.50;99.90;;;;;;5111669;28;20043;-65
2022/04/07 11:15:03;;;;;;;9.48;2.67;;;10.60;99.90;;;;;;5093232;28;20172;-65
2022/04/07 11:17:41;;;;;;;9.48;2.55;;;10.60;99.90;;;;;;5111883;28;20135;-63
2022/04/07 11:20:19;;;;;;;9.73;2.35;;;10.60;99.90;;;;;;5111617;28;20070;-64
2022/04/07 11:22:46;;;;;;;9.10;2.30;;;10.60;99.90;;;;;;5076894;28;20044;-64
2022/04/07 11:25:14;;;;;;;14.07;3.28;;;10.70;99.90;;;;;;5111841;28;20095;-65
2022/04/07 11:27:42;;;;;;;16.33;3.38;;;10.80;99.90;;;;;;5111592;28;20577;-64
2022/04/07 11:30:10;;;;;;;9.68;2.90;;;10.90;99.90;;;;;;5111542;28;20512;-65
2022/04/07 11:32:38;;;;;;;16.38;3.58;;;10.90;99.90;;;;;;5111595;28;20173;-65
2022/04/07 11:35:15;;;;;;;12.75;2.83;;;11.00;99.90;;;;;;5112103;28;20184;-65
2022/04/07 11:37:42;;;;;;;14.18;2.78;;;11.00;99.90;;;;;;5093495;28;20031;-65
2022/04/07 11:40:09;;;;;;;12.00;2.90;;;11.00;99.90;;;;;;5093170;28;20047;-64
2022/04/07 11:42:36;;;;;;;8.20;2.67;;;11.00;99.90;;;;;;5111149;28;20058;-73
2022/04/07 11:45:02;;;;;;;7.30;2.10;;;11.00;99.90;;;;;;5093882;28;20101;-67
2022/04/07 11:47:37;;;;;;;15.77;3.53;;;11.00;99.90;;;;;;5111912;28;20130;-66
2022/04/07 11:50:05;;;;;;;10.57;2.97;;;11.00;99.90;;;;;;5092283;28;20043;-67
2022/04/07 11:52:33;;;;;;;9.00;2.63;;;11.00;99.90;;;;;;5093581;28;20384;-66
2022/04/07 11:55:00;;;;;;;10.57;2.55;;;10.90;99.90;;;;;;5110935;28;20040;-65
2022/04/07 11:57:30;;;;;;;12.48;4.75;;;10.90;99.90;;;;;;5111463;28;20048;-65
2022/04/07 12:00:01;;;;;;;10.35;3.05;;;10.90;99.90;;;;;;5092516;28;20048;-64
2022/04/07 12:02:27;;;;;;;10.25;2.33;;;10.90;99.90;;;;;;5093242;28;20047;-65
2022/04/07 12:04:57;;;;;;;14.13;2.63;;;10.90;99.90;;;;;;5110971;28;20500;-64
2022/04/07 12:07:23;;;;;;;9.52;2.85;;;11.00;99.90;;;;;;5111532;28;20079;-65
2022/04/07 12:09:49;;;;;;;9.50;2.63;;;11.10;99.90;;;;;;5110707;28;20051;-65
2022/04/07 12:12:18;;;;;;;8.85;2.38;;;11.20;99.90;;;;;;5093152;28;20036;-66
2022/04/07 12:14:45;;;;;;;10.23;2.28;;;11.40;99.90;;;;;;5110933;28;20047;-65
2022/04/07 12:17:11;;;;;;;10.48;2.67;;;11.40;99.90;;;;;;5111547;28;20046;-64
2022/04/07 12:19:46;;;;;;;11.02;2.40;;;11.60;99.90;;;;;;5092951;28;20126;-67
2022/04/07 12:22:13;;;;;;;10.73;2.80;;;11.60;99.90;;;;;;5111463;28;20047;-63
2022/04/07 12:25:00;;;;;;;7.07;2.10;;;11.50;99.90;;;;;;5111190;28;20048;-70
2022/04/07 12:27:28;;;;;;;9.48;2.67;;;11.40;99.90;;;;;;5111500;28;20087;-64
2022/04/07 12:29:54;;;;;;;8.43;2.58;;;11.30;99.90;;;;;;5110864;28;20044;-64
2022/04/07 12:32:20;;;;;;;6.97;1.92;;;11.10;99.90;;;;;;5076485;28;20051;-63
2022/04/07 12:34:49;;;;;;;8.07;2.10;;;10.50;99.90;;;;;;5092582;28;20058;-63
2022/04/07 12:37:38;;;;;;;4.80;1.70;;;9.90;99.90;;;;;;5093325;28;20052;-62
2022/04/07 12:40:14;;;;;;;4.75;1.60;;;9.40;99.90;;;;;;5110583;28;20630;-63
2022/04/07 12:42:54;;;;;;;6.00;1.90;;;9.20;99.90;;;;;;5093216;28;20044;-64
2022/04/07 12:45:23;;;;;;;6.13;1.70;;;8.90;99.90;;;;;;5111837;28;20338;-64
2022/04/07 12:48:05;;;;;;;7.55;2.17;;;9.10;99.90;;;;;;5111057;28;20189;-65
2022/04/07 12:50:33;;;;;;;8.55;2.17;;;9.40;99.90;;;;;;5110691;28;20048;-64
2022/04/07 12:53:00;;;;;;;10.23;2.47;;;9.50;99.90;;;;;;5093326;28;20040;-64
2022/04/07 12:55:37;;;;;;;7.75;2.17;;;9.70;99.90;;;;;;5115123;28;20032;-63
2022/04/07 12:58:03;;;;;;;9.23;2.05;;;9.90;99.90;;;;;;5096772;28;20135;-64